Nearby METAR Reports

 

KAVP - Avoca/Wilkes B., Pennsylvania, USA
Distance from station: SW 13mi, 22km
Updated: Thu, 24-May-2018 22:54 EDT
Clear
Clear
 Wind from ESE
Wind: ESE 5 mph , 7 km/h
Temperature: 63°F , 17°C
Dew Point: 48°F , 9°C
Humidity: 59%
Barometer: 30.11 inHg , 1019.6 hPa
Clouds: Clear
Visibility: 10 miles , 16 km
2018/05/25 02:54 KAVP 250254Z 11004KT 10SM CLR 17/09 A3011 RMK AO2 SLP189 T01720094 51005
KMPO - Mt. Pocono, Pennsylvania, USA
Distance from station: SSE 26mi, 43km
Updated: Thu, 24-May-2018 22:53 EDT
Clear
Clear
 Wind from calm
Wind: Calm
Temperature: 54°F , 12°C
Dew Point: 50°F , 10°C
Humidity: 88%
Barometer: 30.15 inHg , 1021 hPa
Clouds: Clear
Visibility: 10 miles , 16 km
2018/05/25 02:53 KMPO 250253Z AUTO 00000KT 10SM CLR 12/10 A3015 RMK AO2 SLP204 T01220100 51003
 
KMSV - Monticello, New York, USA
Distance from station: ENE 43mi, 69km
Updated: Sun, 13-May-2018 09:55 EDT
NOT Current
Overcast
Overcast
 Wind from SSE
Wind: SSE 9 mph , 15 km/h
Temperature: 52°F , 11°C
Dew Point: 45°F , 7°C
Humidity: 77%
Barometer: 30.15 inHg , 1021 hPa
Clouds: Overcast
Visibility: 15 miles , 24 km
Cloud details: Overcast 1000 ft
2018/05/13 13:55 KMSV 131355Z 15008KT 15SM OVC010 11/07 A3015
KFWN - Sussex, New Jersey, USA
Distance from station: ESE 52mi, 84km
Updated: Thu, 24-May-2018 22:53 EDT
Clear
Clear
 Wind from calm
Wind: Calm
Temperature: 57°F , 14°C
Dew Point: 54°F , 12°C
Humidity: 88%
Barometer: 30.09 inHg , 1019 hPa
Clouds: Clear
Visibility: 10 miles , 16 km
2018/05/25 02:53 KFWN 250253Z AUTO 00000KT 10SM CLR 14/12 A3009 RMK AO2 SLP188 T01440122 51008
 
K12N - Andover, New Jersey, USA
Distance from station: SE 54mi, 87km
Updated: Thu, 24-May-2018 22:54 EDT

 Wind from calm
Wind: Calm
Temperature: 59°F , 15°C
Dew Point: 55°F , 13°C
Humidity: 88%
Barometer: 30.10 inHg , 1019.3 hPa
2018/05/25 02:54 K12N 250254Z AUTO 00000KT 15/13 A3010 RMK AO1 SLP188 T01500133 50007
KBGM - Binghamton, New York, USA
Distance from station: NNW 55mi, 88km
Updated: Thu, 24-May-2018 22:53 EDT
Clear
Clear
 Wind from SW
Wind: SW 3 mph , 6 km/h
Temperature: 66°F , 19°C
Dew Point: 45°F , 7°C
Humidity: 46%
Barometer: 30.11 inHg , 1019.6 hPa
Clouds: Clear
Visibility: 10 miles , 16 km
2018/05/25 02:53 KBGM 250253Z 23003KT 10SM CLR 19/07 A3011 RMK AO2 SLP188 T01940072 50001
 
KABE - Allentown, Pennsylvania, USA
Distance from station: S 58mi, 94km
Updated: Thu, 24-May-2018 22:51 EDT
Clear
Clear
 Wind from W
Wind: W 5 mph , 7 km/h
Temperature: 68°F , 20°C
Dew Point: 50°F , 10°C
Humidity: 53%
Barometer: 30.10 inHg , 1019.3 hPa
Clouds: Clear
Visibility: 10 miles , 16 km
2018/05/25 02:51 KABE 250251Z 27004KT 10SM CLR 20/10 A3010 RMK AO2 SLP190 T02000100 53006
KXLL - Allentown Queen, Pennsylvania, USA
Distance from station: S 64mi, 103km
Updated: Thu, 24-May-2018 23:15 EDT
Clear
Clear
 Wind from SSW
Wind: SSW 3 mph , 6 km/h
Temperature: 66°F , 19°C
Dew Point: 50°F , 10°C
Humidity: 56%
Barometer: 30.12 inHg , 1020 hPa
Clouds: Clear
Visibility: 10 miles , 16 km
2018/05/25 03:15 KXLL 250315Z AUTO 20003KT 10SM CLR 19/10 A3012 RMK AO2
 
KMGJ - Montgomery, New York, USA
Distance from station: E 67mi, 108km
Updated: Thu, 24-May-2018 22:54 EDT
Clear
Clear
 Wind from calm
Wind: Calm
Temperature: 61°F , 16°C
Dew Point: 50°F , 10°C
Humidity: 68%
Barometer: 30.07 inHg , 1018.3 hPa
Clouds: Clear
Visibility: 10 miles , 16 km
2018/05/25 02:54 KMGJ 250254Z AUTO 00000KT 10SM CLR 16/10 A3007 RMK AO2 SLP180 T01610100 51008
KIPT - Williamsport, Pennsylvania, USA
Distance from station: WSW 72mi, 116km
Updated: Thu, 24-May-2018 22:54 EDT
Clear
Clear
 Wind from NW
Wind: NW 3 mph , 6 km/h
Temperature: 64°F , 18°C
Dew Point: 54°F , 12°C
Humidity: 68%
Barometer: 30.08 inHg , 1018.6 hPa
Clouds: Clear
Visibility: 10 miles , 16 km
2018/05/25 02:54 KIPT 250254Z AUTO 31003KT 10SM CLR 18/12 A3008 RMK AO2 SLP183 T01830117 51007
 
KUKT - Quakertown Arp, Pennsylvania, USA
Distance from station: S 74mi, 119km
Updated: Thu, 24-May-2018 23:15 EDT
Clear
Clear
 Wind from calm
Wind: Calm
Temperature: 61°F , 16°C
Dew Point: 54°F , 12°C
Humidity: 77%
Barometer: 30.12 inHg , 1020 hPa
Clouds: Clear
Visibility: 10 miles , 16 km
2018/05/25 03:15 KUKT 250315Z AUTO 00000KT 10SM CLR 16/12 A3012 RMK A01
KSMQ - Somerville, New Jersey, USA
Distance from station: SE 76mi, 123km
Updated: Thu, 24-May-2018 22:53 EDT
Clear
Clear
 Wind from calm
Wind: Calm
Temperature: 61°F , 16°C
Dew Point: 55°F , 13°C
Humidity: 83%
Barometer: 30.08 inHg , 1018.6 hPa
Clouds: Clear
Visibility: 10 miles , 16 km
2018/05/25 02:53 KSMQ 250253Z AUTO 00000KT 10SM CLR 16/13 A3008 RMK AO2 SLP186 T01610128 51011
 
KSWF - Newburgh/Stewart, New York, USA
Distance from station: E 77mi, 123km
Updated: Thu, 24-May-2018 22:45 EDT
Clear
Clear
 Wind from varies
Wind: varies 5 mph , 7 km/h
Temperature: 64°F , 18°C
Dew Point: 54°F , 12°C
Humidity: 68%
Barometer: 30.09 inHg , 1019 hPa
Clouds: Clear
Visibility: 10 miles , 16 km
2018/05/25 02:45 KSWF 250245Z VRB04KT 10SM SKC 18/12 A3009
KMMU - Morristown Muni, New Jersey, USA
Distance from station: SE 77mi, 124km
Updated: Thu, 24-May-2018 23:15 EDT
Clear
Clear
 Wind from calm
Wind: Calm
Temperature: 68°F , 20°C
Dew Point: 50°F , 10°C
Humidity: 53%
Barometer: 30.09 inHg , 1019 hPa
Clouds: Clear
Visibility: 10 miles , 16 km
2018/05/25 03:15 KMMU 250315Z AUTO 00000KT 10SM CLR 20/10 A3009 RMK AO2
 
KCDW - Caldwell, New Jersey, USA
Distance from station: ESE 79mi, 127km
Updated: Thu, 24-May-2018 22:53 EDT
Clear
Clear
 Wind from calm
Wind: Calm
Temperature: 72°F , 22°C
Dew Point: 48°F , 9°C
Humidity: 44%
Barometer: 30.09 inHg , 1019 hPa
Clouds: Clear
Visibility: 10 miles , 16 km
2018/05/25 02:53 KCDW 250253Z 00000KT 10SM CLR 22/09 A3009 RMK AO2 SLP192 T02170089 51010
KRDG - Reading, Pennsylvania, USA
Distance from station: SSW 80mi, 130km
Updated: Thu, 24-May-2018 22:54 EDT
Clear
Clear
 Wind from calm
Wind: Calm
Temperature: 70°F , 21°C
Dew Point: 54°F , 12°C
Humidity: 57%
Barometer: 30.10 inHg , 1019.3 hPa
Clouds: Clear
Visibility: 10 miles , 16 km
2018/05/25 02:54 KRDG 250254Z 00000KT 10SM CLR 21/12 A3010 RMK AO2 SLP196 T02110117 51008
 
KITH - Ithaca/Tompkins, New York, USA
Distance from station: NW 81mi, 131km
Updated: Thu, 24-May-2018 22:56 EDT
Clear
Clear
 Wind from calm
Wind: Calm
Temperature: 55°F , 13°C
Dew Point: 54°F , 12°C
Humidity: 94%
Barometer: 30.10 inHg , 1019.3 hPa
Clouds: Clear
Visibility: 10 miles , 16 km
2018/05/25 02:56 KITH 250256Z AUTO 00000KT 10SM CLR 13/12 A3010 RMK AO2 SLP190 T01330122 58000
KSEG - Selinsgrove, Pennsylvania, USA
Distance from station: SW 82mi, 132km
Updated: Thu, 24-May-2018 22:53 EDT
Clear
Clear
 Wind from calm
Wind: Calm
Temperature: 57°F , 14°C
Dew Point: 55°F , 13°C
Humidity: 94%
Barometer: 30.11 inHg , 1019.6 hPa
Clouds: Clear
Visibility: 10 miles , 16 km
2018/05/25 02:53 KSEG 250253Z AUTO 00000KT 10SM CLR 14/13 A3011 RMK AO2 SLP193 T01390128 51006
 
KELM - Elmira, New York, USA
Distance from station: WNW 82mi, 133km
Updated: Thu, 24-May-2018 22:53 EDT
Clear
Clear
 Wind from calm
Wind: Calm
Temperature: 57°F , 14°C
Dew Point: 52°F , 11°C
Humidity: 82%
Barometer: 30.09 inHg , 1019 hPa
Clouds: Clear
Visibility: 10 miles , 16 km
2018/05/25 02:53 KELM 250253Z 00000KT 10SM CLR 14/11 A3009 RMK AO2 SLP188 T01390111 50006
KDYL - Doylestown, Pennsylvania, USA
Distance from station: SSE 83mi, 134km
Updated: Thu, 24-May-2018 22:54 EDT
Clear
Clear
 Wind from SSW
Wind: SSW 6 mph , 9 km/h
Temperature: 70°F , 21°C
Dew Point: 50°F , 10°C
Humidity: 50%
Barometer: 30.11 inHg , 1019.6 hPa
Clouds: Clear
Visibility: 10 miles , 16 km
2018/05/25 02:54 KDYL 250254Z AUTO 21005KT 10SM CLR 21/10 A3011 RMK AO2 SLP191 T02060100 51008